This is the latest recevied weather packets stored in our database for station/object KA1STV. If no packets are shown the sender has not sent any weather packets the latest 1 day(s).
| Time | Temp. | Humidity | Pressure | Rain* | Wind** | Luminosity | Snow |
|---|---|---|---|---|---|---|---|
| 1778020525 | 23.33° C | 54% | 1005.8 hPa | 0 mm | 0.89 m/s, 209° | 46 W/m² | - |
| 1778020221 | 23.33° C | 53% | 1005.5 hPa | 0 mm | 0.45 m/s, 91° | 44 W/m² | - |
| 1778019918 | 23.33° C | 53% | 1005.9 hPa | 0 mm | 0.45 m/s, 117° | 41 W/m² | - |
| 1778019614 | 23.89° C | 52% | 1005.4 hPa | 0 mm | 0.45 m/s, 79° | 46 W/m² | - |
| 1778019311 | 23.89° C | 51% | 1005.5 hPa | 0 mm | 0.89 m/s, 148° | 51 W/m² | - |
| 1778019008 | 23.89° C | 51% | 1005.4 hPa | 0 mm | 2.68 m/s, 125° | 62 W/m² | - |
| 1778018705 | 24.44° C | 50% | 1005.3 hPa | 0 mm | 1.79 m/s, 305° | 60 W/m² | - |
| 1778018403 | 24.44° C | 50% | 1005.4 hPa | 0 mm | 1.34 m/s, 270° | 67 W/m² | - |
| 1778018101 | 25° C | 49% | 1005.4 hPa | 0 mm | 0.89 m/s, 9° | 70 W/m² | - |
| 1778017798 | 25° C | 49% | 1005.2 hPa | 0 mm | 2.68 m/s, 170° | 70 W/m² | - |
| 1778017496 | 25° C | 49% | 1005.1 hPa | 0 mm | 1.34 m/s, 170° | 78 W/m² | - |
| 1778017193 | 25° C | 49% | 1005.1 hPa | 0 mm | 0.45 m/s, 17° | 86 W/m² | - |
| 1778016891 | 25° C | 50% | 1005.1 hPa | 0 mm | 0.45 m/s, 103° | 92 W/m² | - |
| 1778016587 | 25° C | 49% | 1004.8 hPa | 0 mm | 1.79 m/s, 189° | 97 W/m² | - |
| 1778016283 | 25° C | 49% | 1004.9 hPa | 0 mm | 0.89 m/s, 154° | 116 W/m² | - |
| 1778015980 | 25.56° C | 49% | 1005.1 hPa | 0 mm | 0.89 m/s, 22° | 135 W/m² | - |
| 1778015678 | 25.56° C | 48% | 1004.9 hPa | 0 mm | 1.34 m/s, 175° | 128 W/m² | - |
| 1778015374 | 25.56° C | 49% | 1004.9 hPa | 0 mm | 0.89 m/s, 156° | 132 W/m² | - |
| 1778015071 | 25.56° C | 48% | 1005 hPa | 0 mm | 1.79 m/s, 179° | 131 W/m² | - |
| 1778014767 | 25.56° C | 48% | 1005 hPa | 0 mm | 0.89 m/s, 113° | 148 W/m² | - |
| 1778014466 | 26.11° C | 47% | 1005.1 hPa | 0 mm | 3.13 m/s, 198° | 167 W/m² | - |
| 1778014162 | 26.11° C | 47% | 1004.9 hPa | 0 mm | 1.79 m/s, 227° | 150 W/m² | - |
| 1778013860 | 26.67° C | 45% | 1004.9 hPa | 0 mm | 2.24 m/s, 223° | 144 W/m² | - |
| 1778013557 | 26.11° C | 43% | 1004.8 hPa | 0 mm | 0.45 m/s, 3° | 137 W/m² | - |
| 1778013254 | 26.67° C | 43% | 1004.9 hPa | 0 mm | 3.58 m/s, 225° | 127 W/m² | - |
* Rain latest hour (hover to see other rain measurements)
** Current wind speed in m/s (hover to see current wind gust speed)